createdAt,value
2022-12-18T00:01:21.809Z,40.09
2022-12-18T00:03:48.572Z,40.28
2022-12-18T00:06:15.580Z,40.42
2022-12-18T00:08:42.417Z,40.46
2022-12-18T00:11:09.791Z,40.24
2022-12-18T00:13:36.601Z,40.40
2022-12-18T00:16:04.486Z,40.37
2022-12-18T00:18:31.155Z,40.17
2022-12-18T00:21:01.913Z,40.29
2022-12-18T00:23:29.004Z,40.30
2022-12-18T00:25:55.585Z,40.47
2022-12-18T00:28:21.972Z,40.45
2022-12-18T00:30:52.323Z,40.47
2022-12-18T00:33:18.997Z,40.35
2022-12-18T00:35:45.394Z,40.44
2022-12-18T00:38:11.779Z,40.37
2022-12-18T00:40:38.124Z,40.32
2022-12-18T00:43:04.484Z,40.13
2022-12-18T00:45:31.735Z,40.24
2022-12-18T00:47:58.392Z,39.96
2022-12-18T00:50:25.731Z,39.86
2022-12-18T00:52:52.483Z,39.72
2022-12-18T00:55:19.029Z,39.43
2022-12-18T00:57:45.440Z,39.42
2022-12-18T01:00:13.850Z,39.43
2022-12-18T01:02:40.809Z,39.48
2022-12-18T01:05:07.802Z,39.53
2022-12-18T01:07:34.169Z,39.62
2022-12-18T01:10:00.584Z,39.64
2022-12-18T01:12:27.083Z,39.75
2022-12-18T01:14:53.463Z,39.76
2022-12-18T01:17:19.922Z,39.72
2022-12-18T01:19:46.271Z,39.80
2022-12-18T01:22:12.632Z,39.77
2022-12-18T01:24:39.164Z,39.66
2022-12-18T01:27:05.632Z,39.64
2022-12-18T01:29:32.040Z,39.68
2022-12-18T01:31:58.651Z,39.80
2022-12-18T01:34:25.435Z,39.73
2022-12-18T01:36:54.814Z,39.79
2022-12-18T01:39:21.568Z,40.05
2022-12-18T01:42:08.610Z,39.89
2022-12-18T01:44:53.551Z,39.62
2022-12-18T01:47:38.807Z,39.48
2022-12-18T01:50:11.299Z,39.39
2022-12-18T01:52:38.379Z,39.48
2022-12-18T01:55:05.819Z,39.72
2022-12-18T01:57:32.489Z,39.58
2022-12-18T02:00:02.525Z,39.71
2022-12-18T02:02:30.057Z,39.77
2022-12-18T02:04:56.711Z,39.79
2022-12-18T02:07:29.157Z,39.56
2022-12-18T02:09:58.655Z,39.81
2022-12-18T02:12:28.665Z,39.73
2022-12-18T02:14:58.280Z,39.77
2022-12-18T02:17:28.464Z,39.77
2022-12-18T02:20:17.437Z,39.83
2022-12-18T02:22:43.776Z,39.61
2022-12-18T02:25:10.150Z,39.63
2022-12-18T02:27:37.941Z,39.73
2022-12-18T02:30:08.521Z,39.83
2022-12-18T02:32:39.162Z,39.91
2022-12-18T02:35:06.780Z,39.89
2022-12-18T02:37:35.404Z,39.71
2022-12-18T02:40:03.407Z,39.72
2022-12-18T02:42:30.004Z,39.89
2022-12-18T02:44:56.680Z,39.71
2022-12-18T02:47:25.155Z,39.81
2022-12-18T02:50:03.760Z,39.67
2022-12-18T02:52:45.557Z,39.89
2022-12-18T02:55:11.944Z,39.76
2022-12-18T02:57:58.581Z,39.87
2022-12-18T03:01:00.645Z,39.52
2022-12-18T03:03:37.386Z,39.52
2022-12-18T03:06:14.674Z,39.52
2022-12-18T03:08:43.736Z,39.32
2022-12-18T03:11:11.099Z,39.44
2022-12-18T03:13:40.679Z,39.36
2022-12-18T03:16:11.036Z,39.53
2022-12-18T03:18:49.000Z,39.47
2022-12-18T03:21:18.684Z,39.36
2022-12-18T03:23:48.468Z,39.21
2022-12-18T03:26:16.893Z,39.43
2022-12-18T03:28:46.447Z,39.42
2022-12-18T03:31:14.962Z,39.19
2022-12-18T03:33:47.280Z,39.08
2022-12-18T03:36:13.686Z,39.07
2022-12-18T03:38:40.114Z,39.01
2022-12-18T03:41:06.545Z,39.37
2022-12-18T03:43:41.246Z,39.11
2022-12-18T03:46:12.694Z,39.37
2022-12-18T03:48:42.367Z,39.48
2022-12-18T03:51:29.048Z,39.41
2022-12-18T03:54:00.575Z,39.34
2022-12-18T03:56:29.558Z,39.43
2022-12-18T03:58:57.226Z,39.47
2022-12-18T04:01:27.089Z,39.39
2022-12-18T04:03:53.909Z,39.39
2022-12-18T04:06:20.731Z,39.24
2022-12-18T04:08:47.620Z,39.34
2022-12-18T04:11:14.069Z,39.30
2022-12-18T04:13:40.864Z,39.29
2022-12-18T04:16:07.780Z,38.98
2022-12-18T04:18:34.220Z,39.26
2022-12-18T04:21:00.607Z,39.09
2022-12-18T04:23:27.163Z,39.04
2022-12-18T04:25:53.537Z,39.06
2022-12-18T04:28:20.045Z,38.87
2022-12-18T04:30:50.087Z,38.73
2022-12-18T04:33:19.801Z,38.80
2022-12-18T04:35:46.220Z,38.81
2022-12-18T04:38:12.770Z,38.80
2022-12-18T04:40:39.436Z,38.66
2022-12-18T04:43:07.707Z,38.72
2022-12-18T04:45:34.133Z,38.66
2022-12-18T04:48:01.139Z,38.01
2022-12-18T04:50:28.106Z,38.55
2022-12-18T04:52:54.528Z,38.76
2022-12-18T04:55:20.937Z,38.54
2022-12-18T04:57:47.540Z,38.50
2022-12-18T05:00:14.204Z,38.52
2022-12-18T05:02:40.736Z,38.43
2022-12-18T05:05:07.425Z,38.52
2022-12-18T05:07:33.832Z,38.71
2022-12-18T05:10:00.210Z,38.83
2022-12-18T05:12:26.632Z,38.62
2022-12-18T05:14:53.031Z,38.79
2022-12-18T05:17:19.501Z,38.75
2022-12-18T05:19:45.884Z,38.87
2022-12-18T05:22:12.641Z,38.80
2022-12-18T05:24:39.224Z,38.87
2022-12-18T05:27:05.589Z,38.92
2022-12-18T05:29:32.051Z,38.68
2022-12-18T05:31:58.460Z,38.62
2022-12-18T05:34:24.917Z,38.57
2022-12-18T05:36:51.448Z,38.49
2022-12-18T05:39:18.361Z,38.51
2022-12-18T05:41:44.767Z,38.51
2022-12-18T05:44:11.169Z,38.63
2022-12-18T05:46:37.657Z,38.63
2022-12-18T05:49:04.264Z,38.61
2022-12-18T05:51:30.696Z,38.63
2022-12-18T05:53:57.037Z,38.78
2022-12-18T05:56:23.783Z,38.83
2022-12-18T05:58:52.597Z,38.61
2022-12-18T06:01:20.846Z,38.76
2022-12-18T06:03:47.869Z,38.84
2022-12-18T06:06:15.251Z,39.05
2022-12-18T06:08:46.177Z,38.96
2022-12-18T06:11:13.416Z,38.99
2022-12-18T06:13:40.343Z,39.24
2022-12-18T06:16:07.280Z,40.24
2022-12-18T06:18:33.769Z,40.37
2022-12-18T06:21:00.817Z,37.14
2022-12-18T06:23:27.316Z,35.80
2022-12-18T06:25:53.682Z,32.41
2022-12-18T06:28:20.114Z,31.89
2022-12-18T06:30:49.134Z,31.06
2022-12-18T06:33:16.165Z,31.00
2022-12-18T06:35:42.728Z,34.78
2022-12-18T06:38:09.157Z,36.45
2022-12-18T06:40:37.540Z,37.46
2022-12-18T06:43:04.052Z,38.12
2022-12-18T06:45:30.555Z,38.67
2022-12-18T06:47:57.115Z,39.21
2022-12-18T06:50:23.953Z,39.56
2022-12-18T06:52:50.392Z,39.71
2022-12-18T06:55:16.999Z,39.85
2022-12-18T06:57:43.512Z,40.06
2022-12-18T07:00:10.396Z,39.81
2022-12-18T07:02:37.019Z,39.63
2022-12-18T07:05:08.955Z,39.83
2022-12-18T07:07:36.795Z,39.89
2022-12-18T07:10:03.389Z,40.34
2022-12-18T07:12:29.756Z,40.86
2022-12-18T07:14:56.152Z,41.07
2022-12-18T07:17:22.617Z,41.31
2022-12-18T07:19:49.012Z,41.49
2022-12-18T07:22:15.509Z,41.71
2022-12-18T07:24:41.929Z,41.88
2022-12-18T07:27:08.362Z,41.76
2022-12-18T07:29:35.121Z,41.88
2022-12-18T07:32:01.682Z,41.67
2022-12-18T07:34:28.192Z,41.89
2022-12-18T07:36:54.585Z,42.07
2022-12-18T07:39:21.036Z,42.29
2022-12-18T07:42:07.384Z,42.37
2022-12-18T07:44:33.763Z,42.53
2022-12-18T07:47:00.191Z,42.58
2022-12-18T07:49:26.552Z,42.66
2022-12-18T07:51:54.779Z,42.70
2022-12-18T07:54:21.189Z,42.67
2022-12-18T07:56:47.571Z,42.84
2022-12-18T07:59:13.983Z,42.84
2022-12-18T08:01:40.544Z,42.70
2022-12-18T08:04:07.048Z,42.74
2022-12-18T08:06:33.406Z,42.73
2022-12-18T08:08:59.795Z,42.76
2022-12-18T08:11:27.664Z,42.87
2022-12-18T08:13:54.485Z,42.94
2022-12-18T08:16:21.684Z,42.86
2022-12-18T08:18:48.732Z,42.90
2022-12-18T08:21:17.809Z,42.94
2022-12-18T08:23:44.405Z,42.86
2022-12-18T08:26:12.323Z,42.83
2022-12-18T08:28:39.126Z,42.86
2022-12-18T08:31:05.711Z,42.82
2022-12-18T08:33:33.054Z,42.74
2022-12-18T08:36:00.143Z,42.66
2022-12-18T08:38:26.512Z,42.70
2022-12-18T08:41:00.120Z,42.79
2022-12-18T08:43:44.932Z,42.94
2022-12-18T08:46:11.623Z,43.00
2022-12-18T08:48:38.062Z,43.01
2022-12-18T08:51:04.457Z,43.05
2022-12-18T08:53:35.443Z,43.09
2022-12-18T08:56:02.530Z,42.96
2022-12-18T08:58:28.945Z,43.04
2022-12-18T09:00:55.408Z,43.03
2022-12-18T09:03:23.562Z,42.95
2022-12-18T09:05:50.021Z,43.11
2022-12-18T09:08:16.399Z,42.95
2022-12-18T09:10:44.379Z,43.19
2022-12-18T09:13:11.573Z,43.18
2022-12-18T09:15:46.201Z,43.03
2022-12-18T09:18:13.258Z,42.97
2022-12-18T09:20:39.941Z,42.96
2022-12-18T09:23:06.684Z,42.82
2022-12-18T09:25:34.263Z,43.01
2022-12-18T09:28:01.205Z,43.00
2022-12-18T09:30:28.082Z,42.94
2022-12-18T09:32:54.677Z,42.95
2022-12-18T09:35:21.037Z,42.99
2022-12-18T09:37:47.495Z,43.06
2022-12-18T09:40:24.671Z,43.06
2022-12-18T09:43:00.376Z,43.03
2022-12-18T09:45:27.120Z,42.91
2022-12-18T09:47:55.977Z,42.78
2022-12-18T09:50:25.379Z,42.57
2022-12-18T09:52:54.535Z,42.59
2022-12-18T09:55:36.809Z,42.51
2022-12-18T09:58:12.864Z,42.42
2022-12-18T10:00:39.423Z,42.50
2022-12-18T10:03:13.512Z,42.49
2022-12-18T10:05:55.685Z,42.72
2022-12-18T10:08:41.103Z,42.81
2022-12-18T10:11:19.813Z,42.81
2022-12-18T10:14:08.097Z,42.65
2022-12-18T10:16:37.213Z,42.86
2022-12-18T10:19:19.286Z,42.88
2022-12-18T10:21:53.605Z,42.91
2022-12-18T10:24:20.072Z,43.00
2022-12-18T10:26:47.704Z,42.93
2022-12-18T10:29:15.176Z,43.00
2022-12-18T10:31:41.747Z,42.95
2022-12-18T10:34:14.178Z,42.99
2022-12-18T10:36:40.708Z,43.01
2022-12-18T10:39:21.126Z,42.99
2022-12-18T10:41:47.585Z,42.91
2022-12-18T10:44:18.765Z,42.86
2022-12-18T10:46:46.064Z,42.86
2022-12-18T10:49:20.245Z,42.82
2022-12-18T10:51:46.645Z,42.97
2022-12-18T10:54:18.475Z,42.96
2022-12-18T10:56:45.457Z,42.83
2022-12-18T10:59:16.891Z,42.80
2022-12-18T11:01:57.005Z,42.84
2022-12-18T11:04:28.233Z,42.93
2022-12-18T11:07:00.698Z,42.87
2022-12-18T11:09:28.317Z,42.82
2022-12-18T11:11:56.313Z,42.92
2022-12-18T11:14:24.177Z,42.66
2022-12-18T11:19:40.818Z,42.66
2022-12-18T11:22:22.428Z,42.72
2022-12-18T11:27:55.738Z,42.79
2022-12-18T11:30:24.094Z,42.79
2022-12-18T11:33:13.729Z,42.94
2022-12-18T11:35:40.167Z,42.87
2022-12-18T11:38:12.749Z,42.63
2022-12-18T11:40:41.697Z,42.78
2022-12-18T11:43:12.029Z,42.76
2022-12-18T11:45:44.061Z,42.77
2022-12-18T11:48:23.775Z,42.70
2022-12-18T11:50:57.514Z,42.67
2022-12-18T11:53:25.108Z,42.76
2022-12-18T11:55:51.562Z,42.81
2022-12-18T11:58:37.379Z,42.80
2022-12-18T12:01:18.320Z,42.87
2022-12-18T12:03:45.328Z,42.84
2022-12-18T12:06:11.918Z,42.89
2022-12-18T12:08:57.299Z,42.66
2022-12-18T12:11:32.253Z,43.04
2022-12-18T12:14:01.623Z,42.90
2022-12-18T12:16:46.398Z,42.99
2022-12-18T12:19:21.755Z,42.94
2022-12-18T12:21:52.783Z,42.92
2022-12-18T12:24:30.552Z,42.91
2022-12-18T12:27:06.121Z,42.91
2022-12-18T12:29:41.167Z,42.97
2022-12-18T12:32:18.802Z,42.99
2022-12-18T12:34:47.914Z,42.87
2022-12-18T12:37:48.675Z,42.84
2022-12-18T12:40:49.288Z,42.71
2022-12-18T12:43:16.074Z,42.81
2022-12-18T12:46:01.492Z,42.93
2022-12-18T12:48:38.024Z,42.93
2022-12-18T12:51:09.300Z,42.94
2022-12-18T12:53:38.419Z,42.91
2022-12-18T12:56:07.804Z,42.99
2022-12-18T12:58:46.911Z,42.96
2022-12-18T13:01:49.152Z,42.91
2022-12-18T13:04:24.696Z,42.95
2022-12-18T13:07:00.304Z,42.86
2022-12-18T13:09:30.848Z,42.95
2022-12-18T13:12:21.197Z,43.01
2022-12-18T13:14:48.090Z,43.01
2022-12-18T13:17:26.151Z,43.08
2022-12-18T13:19:53.686Z,43.10
2022-12-18T13:22:24.389Z,42.89
2022-12-18T13:24:51.286Z,42.85
2022-12-18T13:27:37.458Z,42.86
2022-12-18T13:30:23.931Z,42.83
2022-12-18T13:33:10.365Z,42.93
2022-12-18T13:35:40.666Z,42.86
2022-12-18T13:38:19.730Z,42.96
2022-12-18T13:40:48.015Z,43.01
2022-12-18T13:43:21.148Z,42.88
2022-12-18T13:45:50.680Z,43.02
2022-12-18T13:48:24.684Z,42.98
2022-12-18T13:50:54.100Z,42.92
2022-12-18T13:53:49.960Z,42.93
2022-12-18T13:56:17.714Z,42.93
2022-12-18T13:58:44.470Z,42.94
2022-12-18T14:01:24.737Z,42.79
2022-12-18T14:03:51.347Z,42.66
2022-12-18T14:06:17.946Z,42.72
2022-12-18T14:08:45.300Z,42.82
2022-12-18T14:11:20.164Z,42.72
2022-12-18T14:13:48.221Z,42.56
2022-12-18T14:16:16.405Z,42.68
2022-12-18T14:19:15.344Z,42.60
2022-12-18T14:21:46.277Z,42.62
2022-12-18T14:24:20.490Z,42.52
2022-12-18T14:26:50.803Z,42.54
2022-12-18T14:29:23.455Z,42.37
2022-12-18T14:32:17.837Z,42.42
2022-12-18T14:34:48.888Z,42.56
2022-12-18T14:37:16.775Z,42.43
2022-12-18T14:39:53.591Z,42.61
2022-12-18T14:42:20.013Z,42.55
2022-12-18T14:47:32.803Z,42.67
2022-12-18T14:49:59.277Z,42.67
2022-12-18T14:52:30.049Z,42.60
2022-12-18T14:54:56.486Z,42.57
2022-12-18T14:57:22.884Z,42.59
2022-12-18T14:59:49.304Z,42.46
2022-12-18T15:02:26.399Z,42.39
2022-12-18T15:05:12.629Z,42.39
2022-12-18T15:07:50.608Z,42.41
2022-12-18T15:10:19.199Z,42.58
2022-12-18T15:12:47.320Z,42.49
2022-12-18T15:15:32.756Z,42.62
2022-12-18T15:18:03.873Z,42.61
2022-12-18T15:20:34.860Z,42.56
2022-12-18T15:23:01.310Z,42.57
2022-12-18T15:25:32.820Z,42.47
2022-12-18T15:27:59.238Z,42.62
2022-12-18T15:30:26.724Z,42.56
2022-12-18T15:32:53.778Z,42.49
2022-12-18T15:35:24.772Z,42.57
2022-12-18T15:37:51.885Z,42.52
2022-12-18T15:40:23.070Z,42.63
2022-12-18T15:43:13.219Z,42.73
2022-12-18T15:45:39.616Z,42.62
2022-12-18T15:48:32.219Z,42.50
2022-12-18T15:50:59.472Z,42.58
2022-12-18T15:53:28.881Z,42.70
2022-12-18T15:56:13.859Z,42.48
2022-12-18T15:58:40.790Z,42.67
2022-12-18T16:01:08.545Z,42.55
2022-12-18T16:03:35.018Z,42.73
2022-12-18T16:06:03.033Z,42.70
2022-12-18T16:08:31.016Z,42.67
2022-12-18T16:10:58.669Z,42.66
2022-12-18T16:13:25.202Z,42.74
2022-12-18T16:15:51.748Z,42.72
2022-12-18T16:18:18.190Z,42.78
2022-12-18T16:20:44.684Z,42.58
2022-12-18T16:23:11.102Z,42.66
2022-12-18T16:25:37.512Z,42.64
2022-12-18T16:28:03.913Z,42.66
2022-12-18T16:30:38.385Z,42.60
2022-12-18T16:33:05.364Z,42.67
2022-12-18T16:35:31.752Z,42.66
2022-12-18T16:37:58.184Z,42.56
2022-12-18T16:40:24.667Z,42.55
2022-12-18T16:42:51.108Z,42.58
2022-12-18T16:45:18.701Z,42.61
2022-12-18T16:47:45.449Z,42.50
2022-12-18T16:50:12.172Z,42.51
2022-12-18T16:52:38.939Z,42.53
2022-12-18T16:55:05.634Z,42.52
2022-12-18T16:57:32.091Z,42.55
2022-12-18T17:00:04.396Z,42.44
2022-12-18T17:02:31.472Z,42.45
2022-12-18T17:04:58.568Z,42.51
2022-12-18T17:07:25.204Z,42.41
2022-12-18T17:09:51.862Z,42.63
2022-12-18T17:12:18.278Z,42.53
2022-12-18T17:14:45.114Z,42.60
2022-12-18T17:17:27.182Z,42.54
2022-12-18T17:19:53.732Z,42.52
2022-12-18T17:22:20.663Z,42.63
2022-12-18T17:24:47.403Z,42.44
2022-12-18T17:27:14.075Z,42.34
2022-12-18T17:29:46.793Z,42.59
2022-12-18T17:32:14.745Z,42.57
2022-12-18T17:34:41.209Z,42.59
2022-12-18T17:37:07.675Z,42.49
2022-12-18T17:39:34.323Z,42.52
2022-12-18T17:42:00.846Z,42.55
2022-12-18T17:44:27.216Z,42.48
2022-12-18T17:46:53.675Z,42.59
2022-12-18T17:49:20.217Z,42.63
2022-12-18T17:51:46.622Z,42.62
2022-12-18T17:54:13.141Z,42.57
2022-12-18T17:56:39.667Z,42.48
2022-12-18T17:59:06.943Z,42.55
2022-12-18T18:01:33.468Z,42.60
2022-12-18T18:04:00.753Z,42.60
2022-12-18T18:06:27.497Z,42.57
2022-12-18T18:08:54.265Z,42.54
2022-12-18T18:11:40.073Z,42.47
2022-12-18T18:14:08.373Z,42.68
2022-12-18T18:16:41.885Z,42.65
2022-12-18T18:19:09.902Z,42.55
2022-12-18T18:21:38.252Z,42.41
2022-12-18T18:24:05.387Z,42.42
2022-12-18T18:26:32.645Z,42.54
2022-12-18T18:29:00.249Z,42.46
2022-12-18T18:31:30.016Z,42.39
2022-12-18T18:33:57.121Z,42.41
2022-12-18T18:36:23.779Z,42.49
2022-12-18T18:38:50.913Z,42.48
2022-12-18T18:41:18.174Z,42.41
2022-12-18T18:43:44.844Z,42.35
2022-12-18T18:46:12.551Z,42.38
2022-12-18T18:48:40.207Z,42.47
2022-12-18T18:51:14.601Z,42.43
2022-12-18T18:53:47.661Z,42.21
2022-12-18T18:59:02.075Z,42.25
2022-12-18T19:01:28.646Z,42.32
2022-12-18T19:03:55.120Z,42.47
2022-12-18T19:06:24.139Z,42.43
2022-12-18T19:08:51.699Z,42.41
2022-12-18T19:11:37.378Z,42.37
2022-12-18T19:14:05.060Z,42.38
2022-12-18T19:16:32.232Z,42.42
2022-12-18T19:19:01.868Z,42.32
2022-12-18T19:21:28.915Z,42.25
2022-12-18T19:23:58.396Z,42.30
2022-12-18T19:26:28.026Z,42.32
2022-12-18T19:28:55.054Z,42.23
2022-12-18T19:31:29.203Z,42.21
2022-12-18T19:33:59.511Z,42.24
2022-12-18T19:36:27.524Z,42.22
2022-12-18T19:38:55.294Z,42.15
2022-12-18T19:41:22.323Z,42.19
2022-12-18T19:43:49.131Z,42.26
2022-12-18T19:46:17.345Z,42.28
2022-12-18T19:48:45.074Z,42.12
2022-12-18T19:51:14.184Z,42.09
2022-12-18T19:53:40.690Z,42.20
2022-12-18T19:56:11.396Z,42.26
2022-12-18T19:58:38.171Z,42.23
2022-12-18T20:01:05.606Z,42.33
2022-12-18T20:03:35.379Z,42.26
2022-12-18T20:06:09.037Z,42.30
2022-12-18T20:08:35.568Z,42.55
2022-12-18T20:11:01.969Z,42.35
2022-12-18T20:13:28.427Z,42.31
2022-12-18T20:15:54.768Z,42.38
2022-12-18T20:18:21.179Z,42.34
2022-12-18T20:20:48.195Z,42.41
2022-12-18T20:23:16.604Z,42.32
2022-12-18T20:25:43.040Z,42.29
2022-12-18T20:28:09.423Z,42.30
2022-12-18T20:30:35.942Z,42.25
2022-12-18T20:33:02.437Z,42.29
2022-12-18T20:35:31.108Z,42.42
2022-12-18T20:37:57.748Z,42.45
2022-12-18T20:40:25.782Z,42.31
2022-12-18T20:42:52.300Z,42.36
2022-12-18T20:45:19.579Z,42.41
2022-12-18T20:47:46.038Z,42.28
2022-12-18T20:50:12.407Z,42.22
2022-12-18T20:52:38.800Z,42.16
2022-12-18T20:55:06.147Z,42.11
2022-12-18T20:57:33.164Z,42.23
2022-12-18T21:00:00.806Z,42.12
2022-12-18T21:02:27.320Z,42.28
2022-12-18T21:04:54.252Z,42.15
2022-12-18T21:07:20.789Z,42.20
2022-12-18T21:09:47.279Z,42.16
2022-12-18T21:12:34.917Z,42.19
2022-12-18T21:15:08.624Z,42.29
2022-12-18T21:17:41.706Z,42.23
2022-12-18T21:20:10.962Z,42.28
2022-12-18T21:22:42.259Z,42.35
2022-12-18T21:25:09.791Z,42.31
2022-12-18T21:27:36.173Z,42.31
2022-12-18T21:30:02.825Z,42.23
2022-12-18T21:32:29.910Z,42.36
2022-12-18T21:35:00.073Z,42.24
2022-12-18T21:37:26.668Z,42.36
2022-12-18T21:39:53.079Z,42.45
2022-12-18T21:42:38.332Z,42.44
2022-12-18T21:45:04.960Z,42.39
2022-12-18T21:47:31.473Z,42.30
2022-12-18T21:49:57.902Z,42.38
2022-12-18T21:52:31.427Z,42.23
2022-12-18T21:55:03.090Z,42.27
2022-12-18T21:57:34.767Z,42.25
2022-12-18T22:00:02.050Z,42.29
2022-12-18T22:02:28.519Z,42.47
2022-12-18T22:04:55.086Z,42.18
2022-12-18T22:07:21.593Z,42.17
2022-12-18T22:09:49.536Z,42.19
2022-12-18T22:12:35.341Z,42.20
2022-12-18T22:15:03.272Z,42.11
2022-12-18T22:17:29.697Z,42.14
2022-12-18T22:19:57.064Z,42.26
2022-12-18T22:22:23.503Z,42.12
2022-12-18T22:24:49.886Z,42.18
2022-12-18T22:27:16.343Z,42.15
2022-12-18T22:30:01.477Z,42.22
2022-12-18T22:32:30.919Z,42.19
2022-12-18T22:35:03.235Z,42.18
2022-12-18T22:37:31.655Z,42.25
2022-12-18T22:39:58.054Z,42.26
2022-12-18T22:42:24.475Z,42.19
2022-12-18T22:44:50.956Z,42.29
2022-12-18T22:47:17.407Z,42.29
2022-12-18T22:49:43.924Z,42.18
2022-12-18T22:52:10.509Z,42.20
2022-12-18T22:54:36.956Z,42.25
2022-12-18T22:57:03.439Z,42.18
2022-12-18T22:59:29.852Z,42.16
2022-12-18T23:01:58.688Z,42.22
2022-12-18T23:04:31.220Z,42.23
2022-12-18T23:07:03.079Z,42.22
2022-12-18T23:09:29.421Z,42.23
2022-12-18T23:11:55.761Z,42.25
2022-12-18T23:14:22.157Z,42.22
2022-12-18T23:16:49.037Z,42.13
2022-12-18T23:19:17.129Z,42.14
2022-12-18T23:21:43.572Z,42.13
2022-12-18T23:24:10.318Z,42.03
2022-12-18T23:26:36.779Z,42.08
2022-12-18T23:29:03.751Z,42.12
2022-12-18T23:31:31.464Z,42.11
2022-12-18T23:33:59.223Z,42.17
2022-12-18T23:36:26.039Z,42.22
2022-12-18T23:38:53.752Z,42.17
2022-12-18T23:41:20.995Z,42.23
2022-12-18T23:43:47.408Z,42.23
2022-12-18T23:46:25.316Z,42.20
2022-12-18T23:48:52.458Z,42.18
2022-12-18T23:51:19.720Z,42.00
2022-12-18T23:53:46.142Z,42.18
2022-12-18T23:56:13.389Z,42.14
2022-12-18T23:58:39.821Z,42.15
